createdAt,value
2022-11-28T00:00:09.069Z,91.16
2022-11-28T00:03:15.711Z,91.05
2022-11-28T00:06:22.803Z,91.05
2022-11-28T00:09:30.253Z,91.36
2022-11-28T00:12:36.832Z,91.47
2022-11-28T00:15:44.163Z,91.78
2022-11-28T00:18:51.447Z,91.78
2022-11-28T00:21:57.884Z,92.09
2022-11-28T00:25:04.974Z,91.93
2022-11-28T00:28:11.799Z,91.93
2022-11-28T00:31:18.692Z,92.34
2022-11-28T00:34:25.866Z,92.13
2022-11-28T00:37:32.577Z,92.13
2022-11-28T00:40:39.347Z,91.93
2022-11-28T00:43:46.407Z,92.03
2022-11-28T00:46:53.279Z,92.13
2022-11-28T00:50:00.097Z,91.93
2022-11-28T00:53:06.879Z,91.82
2022-11-28T00:56:14.180Z,91.51
2022-11-28T00:59:20.879Z,91.30
2022-11-28T01:02:27.805Z,90.53
2022-11-28T01:05:35.083Z,89.71
2022-11-28T01:08:41.491Z,89.29
2022-11-28T01:11:48.750Z,88.88
2022-11-28T01:14:55.443Z,88.78
2022-11-28T01:18:01.917Z,88.88
2022-11-28T01:21:09.143Z,88.98
2022-11-28T01:24:16.273Z,88.67
2022-11-28T01:27:22.734Z,88.78
2022-11-28T01:30:30.044Z,88.98
2022-11-28T01:33:36.951Z,89.40
2022-11-28T01:36:43.805Z,89.71
2022-11-28T01:39:50.735Z,90.23
2022-11-28T01:42:57.563Z,90.84
2022-11-28T01:46:04.518Z,91.36
2022-11-28T01:49:14.467Z,91.67
2022-11-28T01:52:20.977Z,91.93
2022-11-28T01:55:28.408Z,91.93
2022-11-28T01:58:35.328Z,92.13
2022-11-28T02:01:42.542Z,91.72
2022-11-28T02:04:49.339Z,91.41
2022-11-28T02:07:56.125Z,91.51
2022-11-28T02:11:03.081Z,91.41
2022-11-28T02:14:09.968Z,91.20
2022-11-28T02:17:16.700Z,91.09
2022-11-28T02:20:23.573Z,91.20
2022-11-28T02:23:30.073Z,91.09
2022-11-28T02:26:37.373Z,91.20
2022-11-28T02:29:43.904Z,91.61
2022-11-28T02:32:51.056Z,91.72
2022-11-28T02:35:58.265Z,91.55
2022-11-28T02:39:04.665Z,91.66
2022-11-28T02:42:11.426Z,91.76
2022-11-28T02:45:18.788Z,91.86
2022-11-28T02:48:25.283Z,91.55
2022-11-28T02:51:32.606Z,91.76
2022-11-28T02:54:39.841Z,91.97
2022-11-28T02:57:46.741Z,92.07
2022-11-28T03:00:54.107Z,92.18
2022-11-28T03:04:01.029Z,92.49
2022-11-28T03:07:07.986Z,92.49
2022-11-28T03:10:14.939Z,92.28
2022-11-28T03:13:21.869Z,91.86
2022-11-28T03:16:28.766Z,91.76
2022-11-28T03:19:35.731Z,91.35
2022-11-28T03:22:43.082Z,90.93
2022-11-28T03:25:50.081Z,90.68
2022-11-28T03:28:57.060Z,90.37
2022-11-28T03:32:04.225Z,90.99
2022-11-28T03:35:11.232Z,91.61
2022-11-28T03:38:17.986Z,92.49
2022-11-28T03:41:25.314Z,93.00
2022-11-28T03:44:31.791Z,93.31
2022-11-28T03:47:39.057Z,93.41
2022-11-28T03:50:46.055Z,93.77
2022-11-28T03:53:53.053Z,93.98
2022-11-28T03:57:00.406Z,94.18
2022-11-28T04:00:07.468Z,94.29
2022-11-28T04:03:14.097Z,94.18
2022-11-28T04:06:20.858Z,94.29
2022-11-28T04:09:28.176Z,94.29
2022-11-28T04:12:35.009Z,94.39
2022-11-28T04:15:41.710Z,94.29
2022-11-28T04:18:48.869Z,94.18
2022-11-28T04:21:55.290Z,94.39
2022-11-28T04:25:02.401Z,94.43
2022-11-28T04:28:09.637Z,94.54
2022-11-28T04:31:16.538Z,94.43
2022-11-28T04:34:23.399Z,94.33
2022-11-28T04:37:30.714Z,94.23
2022-11-28T04:40:37.562Z,94.12
2022-11-28T04:43:44.303Z,94.12
2022-11-28T04:46:51.394Z,94.02
2022-11-28T04:49:58.289Z,94.02
2022-11-28T04:53:05.195Z,93.81
2022-11-28T04:56:11.995Z,93.81
2022-11-28T04:59:18.905Z,93.46
2022-11-28T05:02:26.585Z,93.04
2022-11-28T05:05:33.538Z,92.84
2022-11-28T05:08:40.849Z,92.53
2022-11-28T05:11:47.936Z,92.01
2022-11-28T05:14:55.071Z,91.80
2022-11-28T05:18:02.259Z,91.60
2022-11-28T05:21:09.258Z,91.60
2022-11-28T05:24:16.652Z,91.49
2022-11-28T05:27:23.668Z,91.60
2022-11-28T05:30:30.800Z,91.49
2022-11-28T05:33:38.279Z,91.39
2022-11-28T05:36:45.010Z,91.39
2022-11-28T05:39:52.320Z,91.39
2022-11-28T05:42:59.461Z,91.08
2022-11-28T05:46:06.381Z,91.28
2022-11-28T05:49:13.685Z,91.18
2022-11-28T05:52:21.373Z,91.28
2022-11-28T05:55:28.063Z,91.28
2022-11-28T05:58:35.530Z,91.49
2022-11-28T06:01:42.792Z,91.80
2022-11-28T06:04:49.795Z,92.32
2022-11-28T06:07:57.419Z,92.74
2022-11-28T06:11:04.515Z,92.84
2022-11-28T06:14:11.805Z,92.88
2022-11-28T06:17:19.226Z,92.98
2022-11-28T06:20:26.017Z,93.08
2022-11-28T06:23:33.058Z,93.19
2022-11-28T06:26:40.038Z,93.50
2022-11-28T06:29:47.747Z,93.71
2022-11-28T06:32:54.457Z,93.50
2022-11-28T06:36:01.867Z,93.29
2022-11-28T06:39:09.393Z,93.19
2022-11-28T06:42:16.199Z,93.19
2022-11-28T06:45:23.715Z,93.08
2022-11-28T06:48:31.145Z,92.98
2022-11-28T06:51:37.900Z,93.08
2022-11-28T06:54:45.462Z,93.08
2022-11-28T06:57:52.812Z,93.40
2022-11-28T07:00:59.692Z,93.50
2022-11-28T07:04:07.063Z,93.60
2022-11-28T07:07:16.664Z,93.50
2022-11-28T07:10:24.353Z,93.60
2022-11-28T07:13:31.785Z,93.50
2022-11-28T07:16:38.585Z,93.71
2022-11-28T07:19:50.506Z,93.91
2022-11-28T07:22:49.195Z,93.91
2022-11-28T07:25:56.383Z,94.23
2022-11-28T07:29:03.677Z,94.08
2022-11-28T07:32:10.889Z,94.29
2022-11-28T07:35:17.918Z,94.29
2022-11-28T07:38:25.410Z,94.29
2022-11-28T07:41:32.368Z,94.29
2022-11-28T07:44:39.279Z,94.29
2022-11-28T07:47:46.599Z,94.18
2022-11-28T07:50:53.349Z,94.08
2022-11-28T07:54:00.559Z,93.98
2022-11-28T07:57:12.756Z,93.77
2022-11-28T08:00:09.540Z,93.87
2022-11-28T08:03:16.685Z,94.08
2022-11-28T08:06:23.721Z,93.98
2022-11-28T08:09:31.402Z,94.08
2022-11-28T08:12:38.403Z,94.29
2022-11-28T08:15:45.455Z,93.98
2022-11-28T08:18:52.495Z,94.08
2022-11-28T08:21:59.196Z,93.98
2022-11-28T08:25:06.634Z,94.18
2022-11-28T08:28:13.765Z,94.39
2022-11-28T08:31:20.645Z,94.49
2022-11-28T08:34:28.047Z,94.39
2022-11-28T08:37:35.457Z,94.56
2022-11-28T08:40:42.022Z,94.45
2022-11-28T08:43:49.467Z,94.24
2022-11-28T08:46:56.018Z,94.04
2022-11-28T08:50:03.136Z,93.73
2022-11-28T08:53:10.588Z,93.73
2022-11-28T08:56:17.391Z,93.73
2022-11-28T08:59:24.808Z,93.31
2022-11-28T09:02:32.200Z,93.52
2022-11-28T09:05:38.883Z,93.16
2022-11-28T09:08:46.295Z,93.16
2022-11-28T09:11:53.699Z,92.96
2022-11-28T09:15:00.503Z,92.85
2022-11-28T09:18:07.893Z,92.44
2022-11-28T09:21:14.875Z,92.55
2022-11-28T09:24:21.956Z,92.24
2022-11-28T09:27:29.306Z,92.44
2022-11-28T09:30:36.519Z,92.55
2022-11-28T09:33:43.536Z,92.13
2022-11-28T09:36:50.865Z,92.44
2022-11-28T09:40:12.831Z,92.61
2022-11-28T09:43:02.188Z,92.40
2022-11-28T09:46:09.322Z,91.88
2022-11-28T09:49:16.907Z,92.09
2022-11-28T09:52:24.091Z,92.40
2022-11-28T09:55:30.862Z,92.09
2022-11-28T09:58:38.075Z,91.99
2022-11-28T10:01:44.462Z,91.88
2022-11-28T10:04:51.656Z,91.78
2022-11-28T10:07:58.839Z,91.88
2022-11-28T10:11:05.274Z,91.57
2022-11-28T10:14:12.298Z,91.63
2022-11-28T10:17:19.098Z,91.94
2022-11-28T10:20:25.852Z,91.74
2022-11-28T10:23:33.042Z,91.84
2022-11-28T10:26:39.833Z,91.69
2022-11-28T10:29:46.715Z,91.80
2022-11-28T10:32:53.718Z,91.80
2022-11-28T10:36:00.504Z,91.59
2022-11-28T10:39:09.990Z,91.49
2022-11-28T10:42:07.277Z,91.28
2022-11-28T10:45:14.350Z,90.97
2022-11-28T10:51:25.337Z,90.83
2022-11-28T10:54:32.576Z,90.72
2022-11-28T10:57:39.348Z,90.62
2022-11-28T11:00:46.078Z,90.62
2022-11-28T11:03:53.459Z,90.52
2022-11-28T11:07:10.179Z,90.31
2022-11-28T11:10:04.411Z,90.78
2022-11-28T11:13:11.163Z,90.26
2022-11-28T11:16:17.662Z,90.31
2022-11-28T11:19:24.502Z,90.78
2022-11-28T11:22:30.918Z,90.47
2022-11-28T11:25:38.142Z,90.89
2022-11-28T11:28:45.283Z,90.37
2022-11-28T11:31:51.684Z,90.58
2022-11-28T11:34:58.710Z,90.89
2022-11-28T11:38:05.941Z,90.68
2022-11-28T11:41:12.366Z,90.89
2022-11-28T11:44:19.615Z,90.68
2022-11-28T11:47:26.456Z,90.16
2022-11-28T11:50:33.276Z,90.26
2022-11-28T11:53:40.760Z,90.26
2022-11-28T11:56:47.750Z,90.89
2022-11-28T11:59:54.748Z,90.47
2022-11-28T12:03:02.195Z,90.26
2022-11-28T12:06:16.055Z,90.06
2022-11-28T12:09:11.534Z,89.95
2022-11-28T12:12:18.314Z,89.75
2022-11-28T12:15:25.221Z,89.54
2022-11-28T12:18:33.910Z,90.37
2022-11-28T12:21:40.626Z,90.06
2022-11-28T12:24:47.933Z,90.06
2022-11-28T12:27:54.924Z,90.37
2022-11-28T12:31:02.138Z,89.86
2022-11-28T12:34:08.965Z,90.06
2022-11-28T12:37:15.716Z,90.02
2022-11-28T12:40:22.957Z,90.02
2022-11-28T12:43:29.784Z,89.54
2022-11-28T12:46:36.642Z,89.75
2022-11-28T12:49:43.445Z,89.75
2022-11-28T12:52:50.468Z,90.37
2022-11-28T12:55:57.600Z,90.06
2022-11-28T12:59:04.570Z,90.37
2022-11-28T13:02:11.594Z,90.16
2022-11-28T13:05:19.301Z,90.16
2022-11-28T13:08:26.270Z,90.06
2022-11-28T13:11:33.492Z,90.26
2022-11-28T13:14:40.790Z,90.58
2022-11-28T13:17:47.433Z,90.47
2022-11-28T13:20:54.934Z,90.89
2022-11-28T13:24:06.871Z,91.20
2022-11-28T13:27:03.405Z,91.50
2022-11-28T13:30:10.684Z,91.30
2022-11-28T13:33:17.883Z,91.61
2022-11-28T13:39:28.716Z,91.50
2022-11-28T13:45:39.632Z,91.71
2022-11-28T13:51:50.445Z,91.50
2022-11-28T13:54:57.605Z,91.86
2022-11-28T13:58:04.351Z,91.86
2022-11-28T14:01:10.854Z,91.86
2022-11-28T14:04:18.159Z,91.65
2022-11-28T14:07:24.762Z,91.86
2022-11-28T14:10:31.921Z,91.65
2022-11-28T14:13:39.132Z,91.86
2022-11-28T14:16:51.601Z,92.27
2022-11-28T14:19:48.602Z,92.27
2022-11-28T14:22:55.532Z,92.32
2022-11-28T14:26:02.490Z,92.11
2022-11-28T14:29:09.595Z,92.52
2022-11-28T14:32:29.742Z,92.32
2022-11-28T14:35:20.465Z,92.42
2022-11-28T14:38:27.664Z,92.72
2022-11-28T14:41:34.346Z,92.72
2022-11-28T14:44:41.045Z,93.18
2022-11-28T14:47:48.073Z,93.08
2022-11-28T14:51:00.933Z,93.18
2022-11-28T14:53:58.068Z,93.60
2022-11-28T14:57:05.069Z,93.80
2022-11-28T15:00:12.099Z,94.01
2022-11-28T15:03:19.797Z,93.91
2022-11-28T15:06:27.030Z,93.95
2022-11-28T15:09:34.170Z,93.95
2022-11-28T15:12:41.112Z,93.95
2022-11-28T15:15:48.832Z,94.06
2022-11-28T15:18:55.901Z,94.16
2022-11-28T15:22:03.033Z,94.16
2022-11-28T15:25:10.312Z,94.26
2022-11-28T15:28:16.733Z,94.26
2022-11-28T15:31:23.538Z,94.26
2022-11-28T15:34:30.303Z,94.37
2022-11-28T15:37:36.900Z,94.41
2022-11-28T15:40:44.006Z,94.41
2022-11-28T15:43:50.954Z,94.51
2022-11-28T15:46:57.450Z,94.62
2022-11-28T15:50:04.825Z,94.72
2022-11-28T15:53:11.303Z,94.82
2022-11-28T15:56:18.359Z,94.72
2022-11-28T15:59:25.514Z,94.82
2022-11-28T16:02:32.425Z,94.93
2022-11-28T16:05:39.408Z,94.93
2022-11-28T16:08:46.600Z,94.93
2022-11-28T16:11:53.169Z,94.93
2022-11-28T16:15:00.239Z,94.93
2022-11-28T16:18:07.163Z,94.93
2022-11-28T16:21:14.100Z,95.07
2022-11-28T16:24:21.391Z,95.07
2022-11-28T16:27:28.301Z,95.18
2022-11-28T16:30:35.242Z,95.28
2022-11-28T16:33:42.593Z,95.28
2022-11-28T16:36:49.413Z,95.39
2022-11-28T16:39:56.362Z,95.39
2022-11-28T16:43:03.214Z,95.49
2022-11-28T16:46:10.437Z,95.59
2022-11-28T16:49:17.305Z,95.70
2022-11-28T16:52:24.293Z,95.80
2022-11-28T16:55:31.599Z,95.70
2022-11-28T16:58:38.316Z,95.70
2022-11-28T17:01:45.301Z,95.95
2022-11-28T17:04:52.486Z,96.05
2022-11-28T17:07:59.044Z,96.05
2022-11-28T17:11:06.256Z,96.05
2022-11-28T17:14:13.996Z,96.15
2022-11-28T17:17:20.480Z,96.36
2022-11-28T17:20:27.710Z,96.57
2022-11-28T17:23:34.520Z,96.57
2022-11-28T17:26:41.290Z,96.72
2022-11-28T17:29:48.710Z,96.92
2022-11-28T17:32:55.141Z,97.13
2022-11-28T17:36:02.292Z,97.24
2022-11-28T17:39:09.403Z,97.44
2022-11-28T17:42:15.883Z,97.65
2022-11-28T17:45:23.002Z,97.75
2022-11-28T17:48:30.404Z,97.96
2022-11-28T17:51:36.984Z,98.11
2022-11-28T17:54:44.404Z,98.11
2022-11-28T17:57:51.255Z,98.21
2022-11-28T18:01:00.774Z,98.32
2022-11-28T18:04:08.104Z,98.42
2022-11-28T18:07:14.945Z,98.63
2022-11-28T18:10:21.326Z,98.63
2022-11-28T18:13:28.644Z,98.52
2022-11-28T18:16:36.194Z,98.32
2022-11-28T18:19:43.043Z,97.96
2022-11-28T18:22:50.027Z,97.65
2022-11-28T18:25:57.299Z,97.34
2022-11-28T18:29:04.248Z,97.13
2022-11-28T18:32:11.117Z,97.13
2022-11-28T18:35:18.278Z,96.82
2022-11-28T18:38:25.168Z,96.72
2022-11-28T18:41:31.924Z,96.72
2022-11-28T18:44:38.549Z,96.51
2022-11-28T18:47:45.871Z,96.51
2022-11-28T18:50:53.196Z,96.61
2022-11-28T18:54:00.004Z,96.67
2022-11-28T18:57:06.905Z,96.72
2022-11-28T19:00:14.303Z,96.82
2022-11-28T19:03:21.055Z,96.67
2022-11-28T19:06:27.835Z,96.88
2022-11-28T19:09:34.830Z,96.78
2022-11-28T19:12:41.258Z,96.78
2022-11-28T19:15:48.356Z,96.88
2022-11-28T19:18:55.640Z,96.88
2022-11-28T19:22:02.196Z,96.78
2022-11-28T19:25:09.406Z,96.67
2022-11-28T19:28:16.648Z,96.78
2022-11-28T19:31:23.311Z,96.78
2022-11-28T19:34:30.439Z,96.98
2022-11-28T19:37:37.344Z,96.88
2022-11-28T19:40:44.590Z,96.98
2022-11-28T19:43:51.801Z,96.98
2022-11-28T19:46:58.763Z,96.98
2022-11-28T19:50:06.173Z,96.78
2022-11-28T19:53:12.837Z,96.73
2022-11-28T19:56:19.721Z,96.62
2022-11-28T19:59:26.924Z,96.52
2022-11-28T20:02:33.875Z,96.52
2022-11-28T20:05:40.581Z,96.52
2022-11-28T20:08:47.714Z,96.31
2022-11-28T20:11:54.263Z,96.31
2022-11-28T20:15:01.520Z,96.11
2022-11-28T20:18:08.678Z,96.21
2022-11-28T20:21:15.135Z,96.01
2022-11-28T20:24:22.366Z,95.70
2022-11-28T20:27:29.396Z,95.59
2022-11-28T20:30:35.797Z,95.59
2022-11-28T20:33:42.846Z,95.49
2022-11-28T20:36:49.315Z,95.49
2022-11-28T20:39:56.471Z,95.28
2022-11-28T20:43:03.388Z,95.44
2022-11-28T20:46:10.029Z,95.34
2022-11-28T20:49:17.179Z,95.44
2022-11-28T20:52:24.458Z,95.65
2022-11-28T20:55:31.080Z,95.34
2022-11-28T20:58:38.192Z,95.44
2022-11-28T21:01:45.428Z,95.54
2022-11-28T21:04:51.922Z,95.44
2022-11-28T21:07:59.240Z,95.18
2022-11-28T21:11:05.712Z,95.59
2022-11-28T21:14:12.525Z,95.39
2022-11-28T21:17:19.972Z,95.65
2022-11-28T21:20:26.995Z,95.70
2022-11-28T21:23:33.755Z,95.70
2022-11-28T21:26:44.185Z,95.80
2022-11-28T21:29:44.355Z,95.70
2022-11-28T21:32:51.335Z,95.59
2022-11-28T21:35:58.146Z,95.59
2022-11-28T21:39:05.116Z,95.59
2022-11-28T21:42:17.449Z,95.59
2022-11-28T21:45:15.709Z,95.59
2022-11-28T21:48:22.528Z,95.59
2022-11-28T21:51:29.217Z,95.70
2022-11-28T21:54:36.459Z,95.59
2022-11-28T21:57:43.339Z,95.49
2022-11-28T22:00:54.032Z,95.39
2022-11-28T22:03:50.796Z,95.49
2022-11-28T22:06:57.631Z,95.49
2022-11-28T22:10:04.561Z,95.39
2022-11-28T22:13:11.860Z,95.59
2022-11-28T22:16:18.473Z,95.39
2022-11-28T22:19:25.734Z,95.28
2022-11-28T22:22:33.529Z,95.24
2022-11-28T22:25:40.163Z,95.34
2022-11-28T22:28:53.207Z,95.24
2022-11-28T22:31:50.003Z,95.34
2022-11-28T22:34:56.742Z,95.03
2022-11-28T22:38:04.105Z,94.82
2022-11-28T22:41:10.636Z,94.93
2022-11-28T22:44:17.507Z,94.93
2022-11-28T22:47:24.894Z,95.14
2022-11-28T22:50:33.819Z,95.14
2022-11-28T22:53:33.824Z,95.24
2022-11-28T22:56:40.987Z,95.14
2022-11-28T22:59:47.512Z,94.93
2022-11-28T23:02:54.948Z,95.03
2022-11-28T23:06:01.850Z,94.93
2022-11-28T23:09:08.660Z,95.14
2022-11-28T23:12:15.967Z,94.82
2022-11-28T23:15:22.481Z,94.93
2022-11-28T23:18:29.507Z,94.93
2022-11-28T23:21:36.784Z,95.03
2022-11-28T23:24:43.871Z,94.97
2022-11-28T23:27:50.853Z,95.28
2022-11-28T23:30:57.776Z,95.39
2022-11-28T23:34:04.965Z,95.49
2022-11-28T23:37:11.835Z,95.18
2022-11-28T23:40:18.584Z,94.87
2022-11-28T23:43:25.887Z,94.76
2022-11-28T23:46:32.865Z,94.45
2022-11-28T23:49:39.837Z,94.45
2022-11-28T23:52:46.988Z,94.76
2022-11-28T23:55:53.580Z,94.93
2022-11-28T23:59:00.768Z,95.03
